sensor_id;sensor_type;location;lat;lon;timestamp;P1;durP1;ratioP1;P2;durP2;ratioP2
6823;SDS011;58633;49.470;11.004;2023-08-07T00:00:35;0.70;;;0.70;;
6823;SDS011;58633;49.470;11.004;2023-08-07T00:03:00;0.50;;;0.50;;
6823;SDS011;58633;49.470;11.004;2023-08-07T00:05:27;0.52;;;0.52;;
6823;SDS011;58633;49.470;11.004;2023-08-07T00:07:53;0.57;;;0.50;;
6823;SDS011;58633;49.470;11.004;2023-08-07T00:10:19;0.68;;;0.50;;
6823;SDS011;58633;49.470;11.004;2023-08-07T00:12:44;0.60;;;0.60;;
6823;SDS011;58633;49.470;11.004;2023-08-07T00:15:10;0.50;;;0.50;;
6823;SDS011;58633;49.470;11.004;2023-08-07T00:17:37;0.50;;;0.50;;
6823;SDS011;58633;49.470;11.004;2023-08-07T00:20:03;0.60;;;0.60;;
6823;SDS011;58633;49.470;11.004;2023-08-07T00:22:29;0.50;;;0.50;;
6823;SDS011;58633;49.470;11.004;2023-08-07T00:24:56;0.50;;;0.50;;
6823;SDS011;58633;49.470;11.004;2023-08-07T00:27:21;2.50;;;0.60;;
6823;SDS011;58633;49.470;11.004;2023-08-07T00:29:47;1.42;;;0.60;;
6823;SDS011;58633;49.470;11.004;2023-08-07T00:32:12;0.60;;;0.60;;
6823;SDS011;58633;49.470;11.004;2023-08-07T00:34:38;0.50;;;0.50;;
6823;SDS011;58633;49.470;11.004;2023-08-07T00:37:04;0.55;;;0.55;;
6823;SDS011;58633;49.470;11.004;2023-08-07T00:39:30;0.50;;;0.50;;
6823;SDS011;58633;49.470;11.004;2023-08-07T00:41:56;0.57;;;0.57;;
6823;SDS011;58633;49.470;11.004;2023-08-07T00:44:21;0.32;;;0.32;;
6823;SDS011;58633;49.470;11.004;2023-08-07T00:46:48;0.55;;;0.50;;
6823;SDS011;58633;49.470;11.004;2023-08-07T00:49:14;0.43;;;0.43;;
6823;SDS011;58633;49.470;11.004;2023-08-07T00:51:40;0.50;;;0.50;;
6823;SDS011;58633;49.470;11.004;2023-08-07T00:54:07;0.50;;;0.50;;
6823;SDS011;58633;49.470;11.004;2023-08-07T00:56:34;0.50;;;0.50;;
6823;SDS011;58633;49.470;11.004;2023-08-07T00:59:00;1.15;;;0.60;;
6823;SDS011;58633;49.470;11.004;2023-08-07T01:01:26;0.60;;;0.60;;
6823;SDS011;58633;49.470;11.004;2023-08-07T01:03:52;0.47;;;0.47;;
6823;SDS011;58633;49.470;11.004;2023-08-07T01:06:18;0.55;;;0.50;;
6823;SDS011;58633;49.470;11.004;2023-08-07T01:08:44;0.63;;;0.63;;
6823;SDS011;58633;49.470;11.004;2023-08-07T01:16:59;1.00;;;0.70;;
6823;SDS011;58633;49.470;11.004;2023-08-07T01:19:30;0.93;;;0.60;;
6823;SDS011;58633;49.470;11.004;2023-08-07T01:22:17;1.25;;;0.40;;
6823;SDS011;58633;49.470;11.004;2023-08-07T01:24:44;1.95;;;0.60;;
6823;SDS011;58633;49.470;11.004;2023-08-07T01:32:28;0.50;;;0.50;;
6823;SDS011;58633;49.470;11.004;2023-08-07T01:35:13;0.57;;;0.57;;
6823;SDS011;58633;49.470;11.004;2023-08-07T01:37:41;0.77;;;0.43;;
6823;SDS011;58633;49.470;11.004;2023-08-07T01:40:08;0.40;;;0.40;;
6823;SDS011;58633;49.470;11.004;2023-08-07T01:42:35;0.65;;;0.63;;
6823;SDS011;58633;49.470;11.004;2023-08-07T01:45:01;1.05;;;0.47;;
6823;SDS011;58633;49.470;11.004;2023-08-07T01:47:29;0.40;;;0.40;;
6823;SDS011;58633;49.470;11.004;2023-08-07T01:49:54;1.02;;;0.90;;
6823;SDS011;58633;49.470;11.004;2023-08-07T01:52:20;0.60;;;0.60;;
6823;SDS011;58633;49.470;11.004;2023-08-07T01:54:46;0.50;;;0.50;;
6823;SDS011;58633;49.470;11.004;2023-08-07T01:57:12;0.80;;;0.80;;
6823;SDS011;58633;49.470;11.004;2023-08-07T01:59:38;0.70;;;0.70;;
6823;SDS011;58633;49.470;11.004;2023-08-07T02:02:04;0.55;;;0.55;;
6823;SDS011;58633;49.470;11.004;2023-08-07T02:04:29;0.68;;;0.68;;
6823;SDS011;58633;49.470;11.004;2023-08-07T02:06:55;2.35;;;0.60;;
6823;SDS011;58633;49.470;11.004;2023-08-07T02:09:21;1.45;;;0.70;;
6823;SDS011;58633;49.470;11.004;2023-08-07T02:11:47;1.00;;;0.73;;
6823;SDS011;58633;49.470;11.004;2023-08-07T02:14:13;1.20;;;0.70;;
6823;SDS011;58633;49.470;11.004;2023-08-07T02:16:38;1.42;;;0.70;;
6823;SDS011;58633;49.470;11.004;2023-08-07T02:19:04;0.75;;;0.70;;
6823;SDS011;58633;49.470;11.004;2023-08-07T02:21:29;1.20;;;0.80;;
6823;SDS011;58633;49.470;11.004;2023-08-07T02:23:55;1.95;;;0.98;;
6823;SDS011;58633;49.470;11.004;2023-08-07T02:26:20;0.60;;;0.60;;
6823;SDS011;58633;49.470;11.004;2023-08-07T02:28:46;2.95;;;0.90;;
6823;SDS011;58633;49.470;11.004;2023-08-07T02:31:12;1.33;;;0.90;;
6823;SDS011;58633;49.470;11.004;2023-08-07T02:33:37;6.72;;;0.88;;
6823;SDS011;58633;49.470;11.004;2023-08-07T02:36:03;0.80;;;0.80;;
6823;SDS011;58633;49.470;11.004;2023-08-07T02:38:28;2.15;;;0.90;;
6823;SDS011;58633;49.470;11.004;2023-08-07T02:40:54;1.38;;;0.80;;
6823;SDS011;58633;49.470;11.004;2023-08-07T02:43:20;1.50;;;0.95;;
6823;SDS011;58633;49.470;11.004;2023-08-07T02:45:45;1.30;;;0.90;;
6823;SDS011;58633;49.470;11.004;2023-08-07T02:48:11;0.80;;;0.80;;
6823;SDS011;58633;49.470;11.004;2023-08-07T02:50:37;1.25;;;0.80;;
6823;SDS011;58633;49.470;11.004;2023-08-07T02:53:03;1.17;;;0.95;;
6823;SDS011;58633;49.470;11.004;2023-08-07T02:55:29;1.58;;;0.77;;
6823;SDS011;58633;49.470;11.004;2023-08-07T02:57:55;1.88;;;0.77;;
6823;SDS011;58633;49.470;11.004;2023-08-07T03:00:20;0.95;;;0.90;;
6823;SDS011;58633;49.470;11.004;2023-08-07T03:02:47;0.98;;;0.90;;
6823;SDS011;58633;49.470;11.004;2023-08-07T03:05:12;3.10;;;0.90;;
6823;SDS011;58633;49.470;11.004;2023-08-07T03:07:38;1.05;;;1.05;;
6823;SDS011;58633;49.470;11.004;2023-08-07T03:10:03;1.08;;;1.08;;
6823;SDS011;58633;49.470;11.004;2023-08-07T03:12:29;0.98;;;0.90;;
6823;SDS011;58633;49.470;11.004;2023-08-07T03:14:57;2.97;;;1.10;;
6823;SDS011;58633;49.470;11.004;2023-08-07T03:17:22;3.65;;;1.23;;
6823;SDS011;58633;49.470;11.004;2023-08-07T03:19:48;0.95;;;0.95;;
6823;SDS011;58633;49.470;11.004;2023-08-07T03:22:14;1.02;;;1.02;;
6823;SDS011;58633;49.470;11.004;2023-08-07T03:24:40;2.05;;;1.00;;
6823;SDS011;58633;49.470;11.004;2023-08-07T03:27:06;1.05;;;1.05;;
6823;SDS011;58633;49.470;11.004;2023-08-07T03:29:31;1.88;;;1.00;;
6823;SDS011;58633;49.470;11.004;2023-08-07T03:31:57;1.55;;;0.98;;
6823;SDS011;58633;49.470;11.004;2023-08-07T03:34:22;2.80;;;1.23;;
6823;SDS011;58633;49.470;11.004;2023-08-07T03:36:48;1.40;;;1.13;;
6823;SDS011;58633;49.470;11.004;2023-08-07T03:39:13;1.20;;;1.10;;
6823;SDS011;58633;49.470;11.004;2023-08-07T03:41:39;2.53;;;1.05;;
6823;SDS011;58633;49.470;11.004;2023-08-07T03:44:04;1.55;;;1.45;;
6823;SDS011;58633;49.470;11.004;2023-08-07T03:46:31;1.38;;;1.27;;
6823;SDS011;58633;49.470;11.004;2023-08-07T03:48:57;1.30;;;1.20;;
6823;SDS011;58633;49.470;11.004;2023-08-07T03:51:23;1.27;;;1.15;;
6823;SDS011;58633;49.470;11.004;2023-08-07T03:53:49;2.50;;;1.50;;
6823;SDS011;58633;49.470;11.004;2023-08-07T03:56:15;1.50;;;1.20;;
6823;SDS011;58633;49.470;11.004;2023-08-07T03:58:40;4.35;;;1.70;;
6823;SDS011;58633;49.470;11.004;2023-08-07T04:01:06;4.50;;;1.70;;
6823;SDS011;58633;49.470;11.004;2023-08-07T04:03:32;1.52;;;1.42;;
6823;SDS011;58633;49.470;11.004;2023-08-07T04:05:57;1.90;;;1.80;;
6823;SDS011;58633;49.470;11.004;2023-08-07T04:08:25;1.48;;;1.17;;
6823;SDS011;58633;49.470;11.004;2023-08-07T04:11:00;1.40;;;1.30;;
6823;SDS011;58633;49.470;11.004;2023-08-07T04:13:27;3.78;;;1.40;;
6823;SDS011;58633;49.470;11.004;2023-08-07T04:15:53;1.65;;;1.30;;
6823;SDS011;58633;49.470;11.004;2023-08-07T04:18:19;1.48;;;1.27;;
6823;SDS011;58633;49.470;11.004;2023-08-07T04:20:55;2.00;;;1.67;;
6823;SDS011;58633;49.470;11.004;2023-08-07T04:23:21;3.22;;;2.05;;
6823;SDS011;58633;49.470;11.004;2023-08-07T04:25:47;1.60;;;1.50;;
6823;SDS011;58633;49.470;11.004;2023-08-07T04:28:13;2.67;;;1.48;;
6823;SDS011;58633;49.470;11.004;2023-08-07T04:30:40;3.35;;;1.67;;
6823;SDS011;58633;49.470;11.004;2023-08-07T04:33:06;3.25;;;1.70;;
6823;SDS011;58633;49.470;11.004;2023-08-07T04:35:32;4.25;;;1.50;;
6823;SDS011;58633;49.470;11.004;2023-08-07T04:37:58;3.72;;;1.70;;
6823;SDS011;58633;49.470;11.004;2023-08-07T04:40:24;2.63;;;1.60;;
6823;SDS011;58633;49.470;11.004;2023-08-07T04:42:50;4.32;;;1.88;;
6823;SDS011;58633;49.470;11.004;2023-08-07T04:45:16;4.32;;;1.73;;
6823;SDS011;58633;49.470;11.004;2023-08-07T04:47:42;4.97;;;1.70;;
6823;SDS011;58633;49.470;11.004;2023-08-07T04:50:08;1.92;;;1.67;;
6823;SDS011;58633;49.470;11.004;2023-08-07T04:52:34;5.53;;;2.05;;
6823;SDS011;58633;49.470;11.004;2023-08-07T04:54:59;6.35;;;1.85;;
6823;SDS011;58633;49.470;11.004;2023-08-07T04:57:25;3.90;;;2.00;;
6823;SDS011;58633;49.470;11.004;2023-08-07T04:59:51;4.07;;;1.88;;
6823;SDS011;58633;49.470;11.004;2023-08-07T05:02:17;3.30;;;1.70;;
6823;SDS011;58633;49.470;11.004;2023-08-07T05:04:43;2.95;;;2.20;;
6823;SDS011;58633;49.470;11.004;2023-08-07T05:07:08;4.47;;;1.98;;
6823;SDS011;58633;49.470;11.004;2023-08-07T05:09:34;5.38;;;2.22;;
6823;SDS011;58633;49.470;11.004;2023-08-07T05:12:00;5.78;;;2.20;;
6823;SDS011;58633;49.470;11.004;2023-08-07T05:14:26;4.15;;;2.30;;
6823;SDS011;58633;49.470;11.004;2023-08-07T05:16:52;5.05;;;2.30;;
6823;SDS011;58633;49.470;11.004;2023-08-07T05:19:17;2.05;;;1.67;;
6823;SDS011;58633;49.470;11.004;2023-08-07T05:21:43;2.55;;;2.15;;
6823;SDS011;58633;49.470;11.004;2023-08-07T05:24:09;3.95;;;2.00;;
6823;SDS011;58633;49.470;11.004;2023-08-07T05:26:34;4.40;;;2.10;;
6823;SDS011;58633;49.470;11.004;2023-08-07T05:29:00;5.25;;;2.20;;
6823;SDS011;58633;49.470;11.004;2023-08-07T05:31:26;4.50;;;2.30;;
6823;SDS011;58633;49.470;11.004;2023-08-07T05:33:52;2.63;;;2.30;;
6823;SDS011;58633;49.470;11.004;2023-08-07T05:36:17;5.95;;;2.47;;
6823;SDS011;58633;49.470;11.004;2023-08-07T05:38:43;6.80;;;2.20;;
6823;SDS011;58633;49.470;11.004;2023-08-07T05:41:09;4.75;;;2.40;;
6823;SDS011;58633;49.470;11.004;2023-08-07T05:43:35;3.72;;;2.25;;
6823;SDS011;58633;49.470;11.004;2023-08-07T05:46:00;2.53;;;2.03;;
6823;SDS011;58633;49.470;11.004;2023-08-07T05:48:26;3.33;;;1.92;;
6823;SDS011;58633;49.470;11.004;2023-08-07T05:50:52;3.05;;;1.90;;
6823;SDS011;58633;49.470;11.004;2023-08-07T05:53:18;5.85;;;2.03;;
6823;SDS011;58633;49.470;11.004;2023-08-07T05:55:44;2.55;;;1.92;;
6823;SDS011;58633;49.470;11.004;2023-08-07T05:58:10;2.60;;;1.80;;
6823;SDS011;58633;49.470;11.004;2023-08-07T06:00:36;5.07;;;1.90;;
6823;SDS011;58633;49.470;11.004;2023-08-07T06:03:02;5.75;;;1.85;;
6823;SDS011;58633;49.470;11.004;2023-08-07T06:05:27;3.20;;;1.65;;
6823;SDS011;58633;49.470;11.004;2023-08-07T06:07:53;4.13;;;1.90;;
6823;SDS011;58633;49.470;11.004;2023-08-07T06:10:19;3.28;;;1.45;;
6823;SDS011;58633;49.470;11.004;2023-08-07T06:12:45;2.90;;;1.88;;
6823;SDS011;58633;49.470;11.004;2023-08-07T06:15:10;2.22;;;1.70;;
6823;SDS011;58633;49.470;11.004;2023-08-07T06:17:36;3.42;;;1.50;;
6823;SDS011;58633;49.470;11.004;2023-08-07T06:20:04;3.13;;;1.73;;
6823;SDS011;58633;49.470;11.004;2023-08-07T06:22:34;2.20;;;1.83;;
6823;SDS011;58633;49.470;11.004;2023-08-07T06:24:59;4.30;;;1.65;;
6823;SDS011;58633;49.470;11.004;2023-08-07T06:27:25;5.55;;;1.75;;
6823;SDS011;58633;49.470;11.004;2023-08-07T06:29:51;1.88;;;1.70;;
6823;SDS011;58633;49.470;11.004;2023-08-07T06:32:16;1.75;;;1.48;;
6823;SDS011;58633;49.470;11.004;2023-08-07T06:34:43;2.65;;;1.80;;
6823;SDS011;58633;49.470;11.004;2023-08-07T06:37:09;2.47;;;1.80;;
6823;SDS011;58633;49.470;11.004;2023-08-07T06:39:34;3.65;;;1.90;;
6823;SDS011;58633;49.470;11.004;2023-08-07T06:42:00;2.83;;;1.70;;
6823;SDS011;58633;49.470;11.004;2023-08-07T06:44:26;2.58;;;1.58;;
6823;SDS011;58633;49.470;11.004;2023-08-07T06:46:53;2.75;;;1.75;;
6823;SDS011;58633;49.470;11.004;2023-08-07T06:49:18;2.30;;;1.45;;
6823;SDS011;58633;49.470;11.004;2023-08-07T06:51:44;5.07;;;1.58;;
6823;SDS011;58633;49.470;11.004;2023-08-07T06:54:10;3.30;;;2.00;;
6823;SDS011;58633;49.470;11.004;2023-08-07T06:56:36;3.22;;;1.92;;
6823;SDS011;58633;49.470;11.004;2023-08-07T06:59:05;2.13;;;1.70;;
6823;SDS011;58633;49.470;11.004;2023-08-07T07:01:31;5.90;;;1.98;;
6823;SDS011;58633;49.470;11.004;2023-08-07T07:03:57;1.98;;;1.52;;
6823;SDS011;58633;49.470;11.004;2023-08-07T07:06:23;4.20;;;1.77;;
6823;SDS011;58633;49.470;11.004;2023-08-07T07:08:50;3.72;;;1.55;;
6823;SDS011;58633;49.470;11.004;2023-08-07T07:11:19;2.75;;;1.52;;
6823;SDS011;58633;49.470;11.004;2023-08-07T07:13:45;3.53;;;1.67;;
6823;SDS011;58633;49.470;11.004;2023-08-07T07:16:11;2.70;;;1.50;;
6823;SDS011;58633;49.470;11.004;2023-08-07T07:18:38;3.28;;;1.77;;
6823;SDS011;58633;49.470;11.004;2023-08-07T07:21:04;5.28;;;1.90;;
6823;SDS011;58633;49.470;11.004;2023-08-07T07:23:30;3.63;;;1.88;;
6823;SDS011;58633;49.470;11.004;2023-08-07T07:25:56;1.70;;;1.50;;
6823;SDS011;58633;49.470;11.004;2023-08-07T07:28:22;5.07;;;2.53;;
6823;SDS011;58633;49.470;11.004;2023-08-07T07:30:51;2.20;;;1.90;;
6823;SDS011;58633;49.470;11.004;2023-08-07T07:33:17;8.75;;;1.83;;
6823;SDS011;58633;49.470;11.004;2023-08-07T07:35:43;2.80;;;1.83;;
6823;SDS011;58633;49.470;11.004;2023-08-07T07:38:09;2.25;;;1.73;;
6823;SDS011;58633;49.470;11.004;2023-08-07T07:40:35;2.78;;;1.73;;
6823;SDS011;58633;49.470;11.004;2023-08-07T07:43:01;5.60;;;1.95;;
6823;SDS011;58633;49.470;11.004;2023-08-07T07:45:27;3.30;;;2.20;;
6823;SDS011;58633;49.470;11.004;2023-08-07T07:47:52;3.30;;;1.90;;
6823;SDS011;58633;49.470;11.004;2023-08-07T07:50:18;4.22;;;2.05;;
6823;SDS011;58633;49.470;11.004;2023-08-07T07:52:43;2.38;;;1.70;;
6823;SDS011;58633;49.470;11.004;2023-08-07T07:55:09;2.35;;;1.80;;
6823;SDS011;58633;49.470;11.004;2023-08-07T07:57:35;2.88;;;1.48;;
6823;SDS011;58633;49.470;11.004;2023-08-07T08:00:01;3.13;;;2.00;;
6823;SDS011;58633;49.470;11.004;2023-08-07T08:02:29;2.72;;;1.73;;
6823;SDS011;58633;49.470;11.004;2023-08-07T08:04:55;3.25;;;2.05;;
6823;SDS011;58633;49.470;11.004;2023-08-07T08:07:21;3.35;;;2.08;;
6823;SDS011;58633;49.470;11.004;2023-08-07T08:09:47;2.42;;;1.88;;
6823;SDS011;58633;49.470;11.004;2023-08-07T08:12:12;4.82;;;2.03;;
6823;SDS011;58633;49.470;11.004;2023-08-07T08:14:38;4.75;;;1.85;;
6823;SDS011;58633;49.470;11.004;2023-08-07T08:17:04;2.35;;;1.70;;
6823;SDS011;58633;49.470;11.004;2023-08-07T08:19:30;3.60;;;2.03;;
6823;SDS011;58633;49.470;11.004;2023-08-07T08:21:56;7.78;;;2.28;;
6823;SDS011;58633;49.470;11.004;2023-08-07T08:24:21;2.33;;;1.92;;
6823;SDS011;58633;49.470;11.004;2023-08-07T08:26:47;4.13;;;2.20;;
6823;SDS011;58633;49.470;11.004;2023-08-07T08:29:16;5.85;;;2.33;;
6823;SDS011;58633;49.470;11.004;2023-08-07T08:31:42;2.95;;;1.70;;
6823;SDS011;58633;49.470;11.004;2023-08-07T08:34:07;3.97;;;1.80;;
6823;SDS011;58633;49.470;11.004;2023-08-07T08:36:33;4.75;;;2.22;;
6823;SDS011;58633;49.470;11.004;2023-08-07T08:39:01;6.20;;;1.75;;
6823;SDS011;58633;49.470;11.004;2023-08-07T08:41:27;5.80;;;1.90;;
6823;SDS011;58633;49.470;11.004;2023-08-07T08:43:55;2.95;;;2.10;;
6823;SDS011;58633;49.470;11.004;2023-08-07T08:46:21;5.10;;;2.13;;
6823;SDS011;58633;49.470;11.004;2023-08-07T08:48:52;4.65;;;2.10;;
6823;SDS011;58633;49.470;11.004;2023-08-07T08:51:21;5.35;;;2.00;;
6823;SDS011;58633;49.470;11.004;2023-08-07T08:53:47;2.80;;;1.80;;
6823;SDS011;58633;49.470;11.004;2023-08-07T08:56:14;4.72;;;1.50;;
6823;SDS011;58633;49.470;11.004;2023-08-07T08:58:41;3.35;;;1.90;;
6823;SDS011;58633;49.470;11.004;2023-08-07T09:01:07;2.42;;;1.65;;
6823;SDS011;58633;49.470;11.004;2023-08-07T09:03:33;1.92;;;1.70;;
6823;SDS011;58633;49.470;11.004;2023-08-07T09:06:00;3.38;;;1.70;;
6823;SDS011;58633;49.470;11.004;2023-08-07T09:08:27;4.45;;;1.70;;
6823;SDS011;58633;49.470;11.004;2023-08-07T09:10:56;4.57;;;1.80;;
6823;SDS011;58633;49.470;11.004;2023-08-07T09:13:23;3.85;;;2.70;;
6823;SDS011;58633;49.470;11.004;2023-08-07T09:15:50;3.17;;;1.77;;
6823;SDS011;58633;49.470;11.004;2023-08-07T09:18:16;3.47;;;1.77;;
6823;SDS011;58633;49.470;11.004;2023-08-07T09:20:43;2.65;;;1.73;;
6823;SDS011;58633;49.470;11.004;2023-08-07T09:23:09;4.63;;;1.60;;
6823;SDS011;58633;49.470;11.004;2023-08-07T09:25:35;1.90;;;1.52;;
6823;SDS011;58633;49.470;11.004;2023-08-07T09:28:01;2.40;;;1.70;;
6823;SDS011;58633;49.470;11.004;2023-08-07T09:30:29;2.75;;;1.85;;
6823;SDS011;58633;49.470;11.004;2023-08-07T09:32:58;1.55;;;1.40;;
6823;SDS011;58633;49.470;11.004;2023-08-07T09:35:24;2.60;;;1.80;;
6823;SDS011;58633;49.470;11.004;2023-08-07T09:37:51;3.00;;;1.85;;
6823;SDS011;58633;49.470;11.004;2023-08-07T09:40:17;1.58;;;1.48;;
6823;SDS011;58633;49.470;11.004;2023-08-07T09:42:43;1.70;;;1.60;;
6823;SDS011;58633;49.470;11.004;2023-08-07T09:45:30;2.60;;;1.92;;
6823;SDS011;58633;49.470;11.004;2023-08-07T09:48:03;2.95;;;1.80;;
6823;SDS011;58633;49.470;11.004;2023-08-07T09:50:31;2.40;;;1.60;;
6823;SDS011;58633;49.470;11.004;2023-08-07T09:52:57;2.70;;;1.83;;
6823;SDS011;58633;49.470;11.004;2023-08-07T09:55:23;3.28;;;1.75;;
6823;SDS011;58633;49.470;11.004;2023-08-07T09:57:50;1.60;;;1.50;;
6823;SDS011;58633;49.470;11.004;2023-08-07T10:00:16;2.42;;;1.48;;
6823;SDS011;58633;49.470;11.004;2023-08-07T10:02:45;2.38;;;1.73;;
6823;SDS011;58633;49.470;11.004;2023-08-07T10:05:12;2.15;;;1.75;;
6823;SDS011;58633;49.470;11.004;2023-08-07T10:07:38;2.20;;;1.40;;
6823;SDS011;58633;49.470;11.004;2023-08-07T10:10:05;4.95;;;1.80;;
6823;SDS011;58633;49.470;11.004;2023-08-07T10:12:34;2.75;;;1.50;;
6823;SDS011;58633;49.470;11.004;2023-08-07T10:15:01;1.88;;;1.20;;
6823;SDS011;58633;49.470;11.004;2023-08-07T10:17:28;1.60;;;1.50;;
6823;SDS011;58633;49.470;11.004;2023-08-07T10:19:54;3.63;;;1.80;;
6823;SDS011;58633;49.470;11.004;2023-08-07T10:22:20;2.88;;;1.50;;
6823;SDS011;58633;49.470;11.004;2023-08-07T10:24:50;2.45;;;1.52;;
6823;SDS011;58633;49.470;11.004;2023-08-07T10:27:16;2.47;;;1.40;;
6823;SDS011;58633;49.470;11.004;2023-08-07T10:29:45;2.55;;;1.60;;
6823;SDS011;58633;49.470;11.004;2023-08-07T10:32:13;2.03;;;1.45;;
6823;SDS011;58633;49.470;11.004;2023-08-07T10:34:40;2.35;;;1.85;;
6823;SDS011;58633;49.470;11.004;2023-08-07T10:37:21;1.73;;;1.52;;
6823;SDS011;58633;49.470;11.004;2023-08-07T10:40:04;2.67;;;1.40;;
6823;SDS011;58633;49.470;11.004;2023-08-07T10:42:55;3.47;;;1.95;;
6823;SDS011;58633;49.470;11.004;2023-08-07T10:45:22;2.58;;;1.67;;
6823;SDS011;58633;49.470;11.004;2023-08-07T10:50:32;2.33;;;1.55;;
6823;SDS011;58633;49.470;11.004;2023-08-07T10:53:01;3.50;;;1.52;;
6823;SDS011;58633;49.470;11.004;2023-08-07T10:55:30;2.55;;;1.88;;
6823;SDS011;58633;49.470;11.004;2023-08-07T10:58:25;3.53;;;1.60;;
6823;SDS011;58633;49.470;11.004;2023-08-07T11:03:44;2.08;;;1.60;;
6823;SDS011;58633;49.470;11.004;2023-08-07T11:06:14;2.00;;;1.77;;
6823;SDS011;58633;49.470;11.004;2023-08-07T11:08:40;3.97;;;1.85;;
6823;SDS011;58633;49.470;11.004;2023-08-07T11:11:06;2.92;;;1.90;;
6823;SDS011;58633;49.470;11.004;2023-08-07T11:13:35;3.13;;;1.77;;
6823;SDS011;58633;49.470;11.004;2023-08-07T11:16:04;5.97;;;1.88;;
6823;SDS011;58633;49.470;11.004;2023-08-07T11:18:30;3.95;;;1.77;;
6823;SDS011;58633;49.470;11.004;2023-08-07T11:20:56;4.38;;;1.75;;
6823;SDS011;58633;49.470;11.004;2023-08-07T11:23:23;3.45;;;1.92;;
6823;SDS011;58633;49.470;11.004;2023-08-07T11:25:49;3.47;;;1.80;;
6823;SDS011;58633;49.470;11.004;2023-08-07T11:28:17;3.33;;;1.75;;
6823;SDS011;58633;49.470;11.004;2023-08-07T11:30:44;3.78;;;1.65;;
6823;SDS011;58633;49.470;11.004;2023-08-07T11:33:12;2.67;;;2.00;;
6823;SDS011;58633;49.470;11.004;2023-08-07T11:35:40;3.42;;;2.03;;
6823;SDS011;58633;49.470;11.004;2023-08-07T11:38:09;3.00;;;2.70;;
6823;SDS011;58633;49.470;11.004;2023-08-07T11:40:34;1.73;;;1.55;;
6823;SDS011;58633;49.470;11.004;2023-08-07T11:43:01;2.55;;;2.35;;
6823;SDS011;58633;49.470;11.004;2023-08-07T11:45:26;3.65;;;1.70;;
6823;SDS011;58633;49.470;11.004;2023-08-07T11:47:52;3.10;;;1.65;;
6823;SDS011;58633;49.470;11.004;2023-08-07T11:50:21;1.85;;;1.60;;
6823;SDS011;58633;49.470;11.004;2023-08-07T11:52:47;2.90;;;2.03;;
6823;SDS011;58633;49.470;11.004;2023-08-07T11:55:14;2.28;;;1.45;;
6823;SDS011;58633;49.470;11.004;2023-08-07T11:57:39;3.25;;;1.48;;
6823;SDS011;58633;49.470;11.004;2023-08-07T12:00:07;3.35;;;1.58;;
6823;SDS011;58633;49.470;11.004;2023-08-07T12:02:42;3.85;;;1.85;;
6823;SDS011;58633;49.470;11.004;2023-08-07T12:05:09;3.72;;;1.52;;
6823;SDS011;58633;49.470;11.004;2023-08-07T12:07:39;2.65;;;1.40;;
6823;SDS011;58633;49.470;11.004;2023-08-07T12:10:08;2.70;;;1.60;;
6823;SDS011;58633;49.470;11.004;2023-08-07T12:12:37;1.52;;;1.42;;
6823;SDS011;58633;49.470;11.004;2023-08-07T12:15:12;2.47;;;1.52;;
6823;SDS011;58633;49.470;11.004;2023-08-07T12:17:38;3.47;;;1.40;;
6823;SDS011;58633;49.470;11.004;2023-08-07T12:20:07;2.03;;;1.50;;
6823;SDS011;58633;49.470;11.004;2023-08-07T12:22:35;1.50;;;1.25;;
6823;SDS011;58633;49.470;11.004;2023-08-07T12:25:02;1.63;;;1.52;;
6823;SDS011;58633;49.470;11.004;2023-08-07T12:27:27;1.45;;;1.35;;
6823;SDS011;58633;49.470;11.004;2023-08-07T12:29:53;1.98;;;1.27;;
6823;SDS011;58633;49.470;11.004;2023-08-07T12:32:20;2.13;;;1.40;;
6823;SDS011;58633;49.470;11.004;2023-08-07T12:34:45;1.20;;;1.10;;
6823;SDS011;58633;49.470;11.004;2023-08-07T12:37:11;1.58;;;1.23;;
6823;SDS011;58633;49.470;11.004;2023-08-07T12:39:37;1.65;;;1.23;;
6823;SDS011;58633;49.470;11.004;2023-08-07T12:42:03;1.45;;;1.35;;
6823;SDS011;58633;49.470;11.004;2023-08-07T12:44:30;1.50;;;1.30;;
6823;SDS011;58633;49.470;11.004;2023-08-07T12:46:55;1.50;;;1.30;;
6823;SDS011;58633;49.470;11.004;2023-08-07T12:49:21;2.22;;;1.42;;
6823;SDS011;58633;49.470;11.004;2023-08-07T12:51:47;1.73;;;1.25;;
6823;SDS011;58633;49.470;11.004;2023-08-07T12:54:12;2.33;;;1.38;;
6823;SDS011;58633;49.470;11.004;2023-08-07T12:56:38;1.60;;;1.30;;
6823;SDS011;58633;49.470;11.004;2023-08-07T12:59:03;3.15;;;1.30;;
6823;SDS011;58633;49.470;11.004;2023-08-07T13:01:29;1.85;;;1.38;;
6823;SDS011;58633;49.470;11.004;2023-08-07T13:03:55;2.22;;;1.33;;
6823;SDS011;58633;49.470;11.004;2023-08-07T13:06:21;1.50;;;1.40;;
6823;SDS011;58633;49.470;11.004;2023-08-07T13:08:47;1.40;;;1.30;;
6823;SDS011;58633;49.470;11.004;2023-08-07T13:11:12;1.90;;;1.40;;
6823;SDS011;58633;49.470;11.004;2023-08-07T13:13:38;1.77;;;1.50;;
6823;SDS011;58633;49.470;11.004;2023-08-07T13:16:04;1.30;;;1.20;;
6823;SDS011;58633;49.470;11.004;2023-08-07T13:18:29;2.13;;;1.30;;
6823;SDS011;58633;49.470;11.004;2023-08-07T13:20:55;1.30;;;1.20;;
6823;SDS011;58633;49.470;11.004;2023-08-07T13:23:21;2.20;;;1.63;;
6823;SDS011;58633;49.470;11.004;2023-08-07T13:25:47;2.33;;;1.80;;
6823;SDS011;58633;49.470;11.004;2023-08-07T13:28:13;2.38;;;2.17;;
6823;SDS011;58633;49.470;11.004;2023-08-07T13:30:39;1.40;;;1.30;;
6823;SDS011;58633;49.470;11.004;2023-08-07T13:33:06;3.70;;;1.50;;
6823;SDS011;58633;49.470;11.004;2023-08-07T13:35:33;2.50;;;1.52;;
6823;SDS011;58633;49.470;11.004;2023-08-07T13:37:58;1.70;;;1.50;;
6823;SDS011;58633;49.470;11.004;2023-08-07T13:40:24;2.35;;;1.30;;
6823;SDS011;58633;49.470;11.004;2023-08-07T13:42:49;1.40;;;1.30;;
6823;SDS011;58633;49.470;11.004;2023-08-07T13:45:15;2.20;;;1.25;;
6823;SDS011;58633;49.470;11.004;2023-08-07T13:47:40;1.67;;;1.40;;
6823;SDS011;58633;49.470;11.004;2023-08-07T13:50:07;1.60;;;1.27;;
6823;SDS011;58633;49.470;11.004;2023-08-07T13:52:33;2.50;;;1.30;;
6823;SDS011;58633;49.470;11.004;2023-08-07T13:54:59;1.42;;;1.27;;
6823;SDS011;58633;49.470;11.004;2023-08-07T13:57:25;1.55;;;1.25;;
6823;SDS011;58633;49.470;11.004;2023-08-07T13:59:51;2.70;;;1.63;;
6823;SDS011;58633;49.470;11.004;2023-08-07T14:02:16;2.15;;;1.75;;
6823;SDS011;58633;49.470;11.004;2023-08-07T14:04:42;2.72;;;1.50;;
6823;SDS011;58633;49.470;11.004;2023-08-07T14:07:10;1.60;;;1.20;;
6823;SDS011;58633;49.470;11.004;2023-08-07T14:09:36;2.50;;;1.30;;
6823;SDS011;58633;49.470;11.004;2023-08-07T14:12:02;2.85;;;1.65;;
6823;SDS011;58633;49.470;11.004;2023-08-07T14:14:28;2.05;;;1.40;;
6823;SDS011;58633;49.470;11.004;2023-08-07T14:16:53;2.45;;;1.70;;
6823;SDS011;58633;49.470;11.004;2023-08-07T14:19:22;2.60;;;1.50;;
6823;SDS011;58633;49.470;11.004;2023-08-07T14:21:48;2.40;;;1.90;;
6823;SDS011;58633;49.470;11.004;2023-08-07T14:24:14;1.90;;;1.63;;
6823;SDS011;58633;49.470;11.004;2023-08-07T14:26:43;3.58;;;1.58;;
6823;SDS011;58633;49.470;11.004;2023-08-07T14:29:08;1.65;;;1.50;;
6823;SDS011;58633;49.470;11.004;2023-08-07T14:31:34;2.45;;;1.58;;
6823;SDS011;58633;49.470;11.004;2023-08-07T14:34:00;2.97;;;1.65;;
6823;SDS011;58633;49.470;11.004;2023-08-07T14:36:25;2.97;;;1.40;;
6823;SDS011;58633;49.470;11.004;2023-08-07T14:38:51;3.00;;;1.33;;
6823;SDS011;58633;49.470;11.004;2023-08-07T14:41:17;2.97;;;1.60;;
6823;SDS011;58633;49.470;11.004;2023-08-07T14:43:43;2.40;;;1.80;;
6823;SDS011;58633;49.470;11.004;2023-08-07T14:46:09;3.55;;;1.70;;
6823;SDS011;58633;49.470;11.004;2023-08-07T14:48:35;2.38;;;1.77;;
6823;SDS011;58633;49.470;11.004;2023-08-07T14:51:02;2.63;;;1.55;;
6823;SDS011;58633;49.470;11.004;2023-08-07T14:53:27;1.95;;;1.73;;
6823;SDS011;58633;49.470;11.004;2023-08-07T14:55:53;2.13;;;1.85;;
6823;SDS011;58633;49.470;11.004;2023-08-07T14:58:19;3.05;;;1.75;;
6823;SDS011;58633;49.470;11.004;2023-08-07T15:00:44;3.03;;;2.10;;